sensor_id;sensor_type;location;lat;lon;timestamp;pressure;altitude;pressure_sealevel;temperature;humidity
70930;BME280;58588;48.102;19.682;2023-05-27T00:00:21;99786.69;;;17.80;100.00
70930;BME280;58588;48.102;19.682;2023-05-27T00:03:24;99790.50;;;17.79;100.00
70930;BME280;58588;48.102;19.682;2023-05-27T00:06:27;99783.25;;;17.66;100.00
70930;BME280;58588;48.102;19.682;2023-05-27T00:09:32;99791.50;;;17.59;100.00
70930;BME280;58588;48.102;19.682;2023-05-27T00:12:36;99793.88;;;17.49;100.00
70930;BME280;58588;48.102;19.682;2023-05-27T00:15:40;99788.50;;;17.43;100.00
70930;BME280;58588;48.102;19.682;2023-05-27T00:18:42;99791.56;;;17.28;100.00
70930;BME280;58588;48.102;19.682;2023-05-27T00:21:44;99794.38;;;17.15;100.00
70930;BME280;58588;48.102;19.682;2023-05-27T00:24:48;99797.03;;;16.96;100.00
70930;BME280;58588;48.102;19.682;2023-05-27T00:27:54;99796.84;;;16.98;100.00
70930;BME280;58588;48.102;19.682;2023-05-27T00:30:56;99803.34;;;16.90;100.00
70930;BME280;58588;48.102;19.682;2023-05-27T00:33:58;99803.47;;;17.02;100.00
70930;BME280;58588;48.102;19.682;2023-05-27T00:37:00;99793.03;;;16.99;100.00
70930;BME280;58588;48.102;19.682;2023-05-27T00:40:11;99794.88;;;17.05;100.00
70930;BME280;58588;48.102;19.682;2023-05-27T00:43:15;99799.00;;;17.14;100.00
70930;BME280;58588;48.102;19.682;2023-05-27T00:46:18;99805.22;;;17.21;100.00
70930;BME280;58588;48.102;19.682;2023-05-27T00:49:25;99799.16;;;17.19;100.00
70930;BME280;58588;48.102;19.682;2023-05-27T00:52:32;99795.53;;;17.00;100.00
70930;BME280;58588;48.102;19.682;2023-05-27T00:55:36;99799.88;;;16.76;100.00
70930;BME280;58588;48.102;19.682;2023-05-27T00:58:40;99800.34;;;16.60;100.00
70930;BME280;58588;48.102;19.682;2023-05-27T01:01:45;99798.91;;;16.57;100.00
70930;BME280;58588;48.102;19.682;2023-05-27T01:04:49;99793.47;;;16.57;100.00
70930;BME280;58588;48.102;19.682;2023-05-27T01:08:02;99791.81;;;16.56;100.00
70930;BME280;58588;48.102;19.682;2023-05-27T01:11:08;99793.09;;;16.47;100.00
70930;BME280;58588;48.102;19.682;2023-05-27T01:14:13;99791.50;;;16.33;100.00
70930;BME280;58588;48.102;19.682;2023-05-27T01:17:19;99789.00;;;16.31;100.00
70930;BME280;58588;48.102;19.682;2023-05-27T01:20:25;99795.31;;;16.19;100.00
70930;BME280;58588;48.102;19.682;2023-05-27T01:23:34;99791.56;;;16.13;100.00
70930;BME280;58588;48.102;19.682;2023-05-27T01:26:41;99796.00;;;15.94;100.00
70930;BME280;58588;48.102;19.682;2023-05-27T01:29:44;99793.72;;;15.98;100.00
70930;BME280;58588;48.102;19.682;2023-05-27T01:32:50;99803.81;;;15.84;100.00
70930;BME280;58588;48.102;19.682;2023-05-27T01:35:59;99799.00;;;15.73;100.00
70930;BME280;58588;48.102;19.682;2023-05-27T01:39:05;99800.66;;;15.61;100.00
70930;BME280;58588;48.102;19.682;2023-05-27T01:42:11;99799.84;;;15.60;100.00
70930;BME280;58588;48.102;19.682;2023-05-27T01:45:14;99792.53;;;15.67;100.00
70930;BME280;58588;48.102;19.682;2023-05-27T01:48:16;99788.34;;;15.71;100.00
70930;BME280;58588;48.102;19.682;2023-05-27T01:51:19;99784.13;;;15.82;100.00
70930;BME280;58588;48.102;19.682;2023-05-27T01:54:23;99785.59;;;15.85;100.00
70930;BME280;58588;48.102;19.682;2023-05-27T01:57:25;99779.56;;;15.69;100.00
70930;BME280;58588;48.102;19.682;2023-05-27T02:00:27;99776.22;;;15.41;100.00
70930;BME280;58588;48.102;19.682;2023-05-27T02:03:30;99778.94;;;15.34;100.00
70930;BME280;58588;48.102;19.682;2023-05-27T02:06:32;99780.22;;;15.32;100.00
70930;BME280;58588;48.102;19.682;2023-05-27T02:09:36;99782.91;;;15.32;100.00
70930;BME280;58588;48.102;19.682;2023-05-27T02:12:38;99777.50;;;15.32;100.00
70930;BME280;58588;48.102;19.682;2023-05-27T02:15:40;99776.22;;;15.34;100.00
70930;BME280;58588;48.102;19.682;2023-05-27T02:18:42;99779.97;;;15.46;100.00
70930;BME280;58588;48.102;19.682;2023-05-27T02:21:44;99783.53;;;15.34;100.00
70930;BME280;58588;48.102;19.682;2023-05-27T02:24:48;99788.56;;;15.37;100.00
70930;BME280;58588;48.102;19.682;2023-05-27T02:27:50;99784.81;;;15.38;100.00
70930;BME280;58588;48.102;19.682;2023-05-27T02:30:52;99780.44;;;15.23;100.00
70930;BME280;58588;48.102;19.682;2023-05-27T02:33:54;99790.63;;;15.35;100.00
70930;BME280;58588;48.102;19.682;2023-05-27T02:36:56;99791.28;;;15.43;100.00
70930;BME280;58588;48.102;19.682;2023-05-27T02:40:07;99797.56;;;15.31;100.00
70930;BME280;58588;48.102;19.682;2023-05-27T02:43:11;99796.91;;;15.35;100.00
70930;BME280;58588;48.102;19.682;2023-05-27T02:46:15;99791.69;;;15.27;100.00
70930;BME280;58588;48.102;19.682;2023-05-27T02:49:18;99795.84;;;15.16;100.00
70930;BME280;58588;48.102;19.682;2023-05-27T02:52:22;99791.28;;;15.30;100.00
70930;BME280;58588;48.102;19.682;2023-05-27T02:55:26;99801.31;;;15.36;100.00
70930;BME280;58588;48.102;19.682;2023-05-27T02:58:28;99786.03;;;15.29;100.00
70930;BME280;58588;48.102;19.682;2023-05-27T03:01:31;99785.84;;;15.37;100.00
70930;BME280;58588;48.102;19.682;2023-05-27T03:04:35;99785.84;;;15.37;100.00
70930;BME280;58588;48.102;19.682;2023-05-27T03:07:40;99785.19;;;15.35;100.00
70930;BME280;58588;48.102;19.682;2023-05-27T03:10:45;99784.59;;;15.19;100.00
70930;BME280;58588;48.102;19.682;2023-05-27T03:13:47;99796.50;;;15.12;100.00
70930;BME280;58588;48.102;19.682;2023-05-27T03:16:49;99793.97;;;15.10;100.00
70930;BME280;58588;48.102;19.682;2023-05-27T03:19:54;99788.75;;;15.09;100.00
70930;BME280;58588;48.102;19.682;2023-05-27T03:22:59;99797.53;;;15.04;100.00
70930;BME280;58588;48.102;19.682;2023-05-27T03:26:02;99799.63;;;14.95;100.00
70930;BME280;58588;48.102;19.682;2023-05-27T03:29:04;99801.94;;;15.12;100.00
70930;BME280;58588;48.102;19.682;2023-05-27T03:32:07;99804.63;;;15.05;100.00
70930;BME280;58588;48.102;19.682;2023-05-27T03:35:10;99812.16;;;15.03;100.00
70930;BME280;58588;48.102;19.682;2023-05-27T03:38:12;99815.47;;;15.05;100.00
70930;BME280;58588;48.102;19.682;2023-05-27T03:41:16;99813.63;;;15.06;100.00
70930;BME280;58588;48.102;19.682;2023-05-27T03:44:20;99816.13;;;15.01;100.00
70930;BME280;58588;48.102;19.682;2023-05-27T03:47:22;99823.22;;;15.02;100.00
70930;BME280;58588;48.102;19.682;2023-05-27T03:50:24;99821.97;;;15.04;100.00
70930;BME280;58588;48.102;19.682;2023-05-27T03:53:26;99818.84;;;15.14;100.00
70930;BME280;58588;48.102;19.682;2023-05-27T03:56:30;99821.56;;;15.07;100.00
70930;BME280;58588;48.102;19.682;2023-05-27T03:59:32;99819.03;;;14.99;100.00
70930;BME280;58588;48.102;19.682;2023-05-27T04:02:37;99815.53;;;15.18;100.00
70930;BME280;58588;48.102;19.682;2023-05-27T04:05:41;99816.13;;;15.34;100.00
70930;BME280;58588;48.102;19.682;2023-05-27T04:08:43;99825.94;;;15.15;100.00
70930;BME280;58588;48.102;19.682;2023-05-27T04:11:50;99819.28;;;15.31;100.00
70930;BME280;58588;48.102;19.682;2023-05-27T04:14:52;99823.66;;;15.32;100.00
70930;BME280;58588;48.102;19.682;2023-05-27T04:17:56;99829.09;;;15.25;100.00
70930;BME280;58588;48.102;19.682;2023-05-27T04:21:01;99829.72;;;15.34;100.00
70930;BME280;58588;48.102;19.682;2023-05-27T04:24:16;99827.00;;;15.40;100.00
70930;BME280;58588;48.102;19.682;2023-05-27T04:27:21;99823.25;;;15.55;100.00
70930;BME280;58588;48.102;19.682;2023-05-27T04:30:25;99824.94;;;15.62;100.00
70930;BME280;58588;48.102;19.682;2023-05-27T04:33:27;99823.69;;;15.78;100.00
70930;BME280;58588;48.102;19.682;2023-05-27T04:36:29;99834.53;;;15.65;100.00
70930;BME280;58588;48.102;19.682;2023-05-27T04:39:33;99827.59;;;15.89;100.00
70930;BME280;58588;48.102;19.682;2023-05-27T04:42:42;99827.41;;;15.97;100.00
70930;BME280;58588;48.102;19.682;2023-05-27T04:45:47;99821.91;;;16.10;100.00
70930;BME280;58588;48.102;19.682;2023-05-27T04:48:52;99834.25;;;16.19;100.00
70930;BME280;58588;48.102;19.682;2023-05-27T04:51:57;99831.97;;;16.10;100.00
70930;BME280;58588;48.102;19.682;2023-05-27T04:55:00;99828.16;;;16.24;100.00
70930;BME280;58588;48.102;19.682;2023-05-27T04:58:12;99825.13;;;16.52;100.00
70930;BME280;58588;48.102;19.682;2023-05-27T05:01:17;99831.25;;;16.85;100.00
70930;BME280;58588;48.102;19.682;2023-05-27T05:04:21;99827.31;;;17.13;100.00
70930;BME280;58588;48.102;19.682;2023-05-27T05:07:23;99831.50;;;17.41;100.00
70930;BME280;58588;48.102;19.682;2023-05-27T05:10:29;99828.78;;;17.41;100.00
70930;BME280;58588;48.102;19.682;2023-05-27T05:13:48;99819.72;;;17.72;100.00
70930;BME280;58588;48.102;19.682;2023-05-27T05:16:55;99826.72;;;18.04;88.50
70930;BME280;58588;48.102;19.682;2023-05-27T05:19:57;99822.88;;;18.12;85.79
70930;BME280;58588;48.102;19.682;2023-05-27T05:23:07;99823.72;;;18.31;89.35
70930;BME280;58588;48.102;19.682;2023-05-27T05:26:15;99827.59;;;18.41;84.19
70930;BME280;58588;48.102;19.682;2023-05-27T05:29:18;99826.00;;;18.64;83.37
70930;BME280;58588;48.102;19.682;2023-05-27T05:32:26;99829.72;;;18.88;84.60
70930;BME280;58588;48.102;19.682;2023-05-27T05:35:35;99830.50;;;18.77;80.78
70930;BME280;58588;48.102;19.682;2023-05-27T05:38:49;99834.78;;;18.73;80.22
70930;BME280;58588;48.102;19.682;2023-05-27T05:41:54;99832.03;;;19.03;84.45
70930;BME280;58588;48.102;19.682;2023-05-27T05:45:06;99831.16;;;18.90;84.24
70930;BME280;58588;48.102;19.682;2023-05-27T05:48:11;99830.16;;;19.15;82.41
70930;BME280;58588;48.102;19.682;2023-05-27T05:51:19;99833.88;;;19.20;79.72
70930;BME280;58588;48.102;19.682;2023-05-27T05:54:26;99829.97;;;19.40;75.86
70930;BME280;58588;48.102;19.682;2023-05-27T05:57:35;99842.41;;;19.66;79.10
70930;BME280;58588;48.102;19.682;2023-05-27T06:00:49;99847.88;;;19.89;81.36
70930;BME280;58588;48.102;19.682;2023-05-27T06:03:58;99843.97;;;19.73;75.75
70930;BME280;58588;48.102;19.682;2023-05-27T06:07:04;99844.19;;;19.84;76.53
70930;BME280;58588;48.102;19.682;2023-05-27T06:10:11;99851.56;;;20.07;72.65
70930;BME280;58588;48.102;19.682;2023-05-27T06:13:13;99850.97;;;20.28;70.84
70930;BME280;58588;48.102;19.682;2023-05-27T06:16:21;99846.19;;;20.35;71.55
70930;BME280;58588;48.102;19.682;2023-05-27T06:19:26;99853.16;;;20.66;71.57
70930;BME280;58588;48.102;19.682;2023-05-27T06:22:28;99858.81;;;20.88;74.03
70930;BME280;58588;48.102;19.682;2023-05-27T06:25:44;99858.81;;;20.88;66.05
70930;BME280;58588;48.102;19.682;2023-05-27T06:28:46;99858.44;;;21.13;70.80
70930;BME280;58588;48.102;19.682;2023-05-27T06:31:53;99864.19;;;21.28;68.99
70930;BME280;58588;48.102;19.682;2023-05-27T06:34:56;99870.50;;;21.12;66.93
70930;BME280;58588;48.102;19.682;2023-05-27T06:38:01;99862.50;;;21.10;65.63
70930;BME280;58588;48.102;19.682;2023-05-27T06:41:19;99863.78;;;20.91;64.15
70930;BME280;58588;48.102;19.682;2023-05-27T06:44:39;99876.06;;;21.46;66.08
70930;BME280;58588;48.102;19.682;2023-05-27T06:47:58;99862.13;;;21.19;62.60
70930;BME280;58588;48.102;19.682;2023-05-27T06:51:17;99862.91;;;21.31;71.07
70930;BME280;58588;48.102;19.682;2023-05-27T06:54:34;99869.47;;;21.47;65.89
70930;BME280;58588;48.102;19.682;2023-05-27T06:57:50;99877.34;;;21.26;68.58
70930;BME280;58588;48.102;19.682;2023-05-27T07:00:53;99883.97;;;21.59;65.95
70930;BME280;58588;48.102;19.682;2023-05-27T07:04:01;99888.53;;;21.70;64.66
70930;BME280;58588;48.102;19.682;2023-05-27T07:07:09;99888.38;;;21.77;63.57
70930;BME280;58588;48.102;19.682;2023-05-27T07:10:25;99877.88;;;22.24;64.59
70930;BME280;58588;48.102;19.682;2023-05-27T07:13:32;99887.13;;;22.57;59.22
70930;BME280;58588;48.102;19.682;2023-05-27T07:16:36;99887.69;;;23.03;62.22
70930;BME280;58588;48.102;19.682;2023-05-27T07:19:56;99883.53;;;23.22;61.62
70930;BME280;58588;48.102;19.682;2023-05-27T07:23:05;99893.34;;;22.30;56.85
70930;BME280;58588;48.102;19.682;2023-05-27T07:26:10;99881.28;;;22.92;59.64
70930;BME280;58588;48.102;19.682;2023-05-27T07:29:14;99890.94;;;22.78;58.80
70930;BME280;58588;48.102;19.682;2023-05-27T07:32:22;99884.25;;;22.68;56.60
70930;BME280;58588;48.102;19.682;2023-05-27T07:35:27;99889.41;;;23.09;59.49
70930;BME280;58588;48.102;19.682;2023-05-27T07:38:32;99884.38;;;23.01;57.45
70930;BME280;58588;48.102;19.682;2023-05-27T07:41:36;99880.59;;;22.41;56.50
70930;BME280;58588;48.102;19.682;2023-05-27T07:44:41;99877.00;;;22.40;55.21
70930;BME280;58588;48.102;19.682;2023-05-27T07:47:45;99875.16;;;22.46;54.20
70930;BME280;58588;48.102;19.682;2023-05-27T07:50:52;99876.59;;;22.10;56.91
70930;BME280;58588;48.102;19.682;2023-05-27T07:53:54;99870.63;;;22.57;58.68
70930;BME280;58588;48.102;19.682;2023-05-27T07:56:58;99867.88;;;23.01;55.59
70930;BME280;58588;48.102;19.682;2023-05-27T08:00:04;99875.72;;;22.26;55.43
70930;BME280;58588;48.102;19.682;2023-05-27T08:03:08;99875.63;;;22.38;54.57
70930;BME280;58588;48.102;19.682;2023-05-27T08:06:13;99867.81;;;22.74;56.61
70930;BME280;58588;48.102;19.682;2023-05-27T08:09:15;99869.31;;;23.03;54.60
70930;BME280;58588;48.102;19.682;2023-05-27T08:12:37;99863.75;;;22.98;53.80
70930;BME280;58588;48.102;19.682;2023-05-27T08:15:41;99850.75;;;22.93;53.73
70930;BME280;58588;48.102;19.682;2023-05-27T08:18:45;99861.84;;;23.58;58.31
70930;BME280;58588;48.102;19.682;2023-05-27T08:22:01;99854.19;;;23.97;51.67
70930;BME280;58588;48.102;19.682;2023-05-27T08:25:09;99858.88;;;23.05;54.73
70930;BME280;58588;48.102;19.682;2023-05-27T08:28:13;99847.91;;;23.10;54.05
70930;BME280;58588;48.102;19.682;2023-05-27T08:31:17;99847.84;;;23.32;56.28
70930;BME280;58588;48.102;19.682;2023-05-27T08:34:22;99849.41;;;23.23;55.89
70930;BME280;58588;48.102;19.682;2023-05-27T08:37:28;99854.25;;;23.70;55.49
70930;BME280;58588;48.102;19.682;2023-05-27T08:40:33;99858.53;;;23.93;51.38
70930;BME280;58588;48.102;19.682;2023-05-27T08:43:36;99854.72;;;23.99;51.04
70930;BME280;58588;48.102;19.682;2023-05-27T08:46:38;99857.94;;;23.86;51.66
70930;BME280;58588;48.102;19.682;2023-05-27T08:49:41;99860.91;;;24.16;51.71
70930;BME280;58588;48.102;19.682;2023-05-27T08:52:48;99849.38;;;24.19;51.98
70930;BME280;58588;48.102;19.682;2023-05-27T08:55:51;99853.84;;;24.30;49.27
70930;BME280;58588;48.102;19.682;2023-05-27T08:58:56;99857.16;;;24.90;50.83
70930;BME280;58588;48.102;19.682;2023-05-27T09:01:58;99851.88;;;24.89;52.38
70930;BME280;58588;48.102;19.682;2023-05-27T09:05:01;99856.88;;;24.92;51.77
70930;BME280;58588;48.102;19.682;2023-05-27T09:08:04;99854.75;;;24.46;52.14
70930;BME280;58588;48.102;19.682;2023-05-27T09:11:07;99848.16;;;24.52;51.62
70930;BME280;58588;48.102;19.682;2023-05-27T09:14:18;99847.22;;;24.94;51.57
70930;BME280;58588;48.102;19.682;2023-05-27T09:17:22;99844.00;;;24.45;51.26
70930;BME280;58588;48.102;19.682;2023-05-27T09:20:25;99840.84;;;24.78;56.95
70930;BME280;58588;48.102;19.682;2023-05-27T09:23:28;99842.88;;;25.19;52.27
70930;BME280;58588;48.102;19.682;2023-05-27T09:26:33;99844.81;;;25.08;54.77
70930;BME280;58588;48.102;19.682;2023-05-27T09:29:37;99837.88;;;24.95;51.21
70930;BME280;58588;48.102;19.682;2023-05-27T09:32:41;99838.78;;;25.26;52.36
70930;BME280;58588;48.102;19.682;2023-05-27T09:35:43;99835.47;;;25.19;48.48
70930;BME280;58588;48.102;19.682;2023-05-27T09:38:46;99845.94;;;25.22;49.39
70930;BME280;58588;48.102;19.682;2023-05-27T09:41:53;99836.44;;;24.77;51.51
70930;BME280;58588;48.102;19.682;2023-05-27T09:44:56;99843.59;;;24.78;50.72
70930;BME280;58588;48.102;19.682;2023-05-27T09:47:58;99846.25;;;25.61;53.29
70930;BME280;58588;48.102;19.682;2023-05-27T09:51:03;99845.59;;;26.41;52.82
70930;BME280;58588;48.102;19.682;2023-05-27T09:54:07;99846.78;;;25.94;49.13
70930;BME280;58588;48.102;19.682;2023-05-27T09:57:13;99846.78;;;26.09;48.63
70930;BME280;58588;48.102;19.682;2023-05-27T10:00:16;99845.91;;;26.19;51.98
70930;BME280;58588;48.102;19.682;2023-05-27T10:03:21;99846.72;;;26.25;54.28
70930;BME280;58588;48.102;19.682;2023-05-27T10:06:25;99841.28;;;25.84;50.11
70930;BME280;58588;48.102;19.682;2023-05-27T10:09:32;99840.41;;;25.27;49.73
70930;BME280;58588;48.102;19.682;2023-05-27T10:12:40;99845.41;;;25.25;48.92
70930;BME280;58588;48.102;19.682;2023-05-27T10:15:46;99837.94;;;25.36;49.43
70930;BME280;58588;48.102;19.682;2023-05-27T10:18:53;99834.31;;;25.10;49.36
70930;BME280;58588;48.102;19.682;2023-05-27T10:21:55;99829.94;;;25.40;52.16
70930;BME280;58588;48.102;19.682;2023-05-27T10:25:11;99824.59;;;26.25;48.54
70930;BME280;58588;48.102;19.682;2023-05-27T10:28:23;99820.06;;;26.64;47.13
70930;BME280;58588;48.102;19.682;2023-05-27T10:31:31;99817.06;;;27.05;47.03
70930;BME280;58588;48.102;19.682;2023-05-27T10:34:38;99809.06;;;27.43;49.37
70930;BME280;58588;48.102;19.682;2023-05-27T10:37:46;99814.34;;;28.03;50.67
70930;BME280;58588;48.102;19.682;2023-05-27T10:40:59;99804.41;;;28.25;48.51
70930;BME280;58588;48.102;19.682;2023-05-27T10:44:09;99814.19;;;27.60;42.22
70930;BME280;58588;48.102;19.682;2023-05-27T10:47:12;99806.22;;;28.11;44.77
70930;BME280;58588;48.102;19.682;2023-05-27T10:50:16;99803.75;;;28.76;39.88
70930;BME280;58588;48.102;19.682;2023-05-27T10:53:19;99804.59;;;29.33;43.99
70930;BME280;58588;48.102;19.682;2023-05-27T10:56:24;99801.69;;;28.44;41.06
70930;BME280;58588;48.102;19.682;2023-05-27T10:59:33;99804.00;;;28.37;46.71
70930;BME280;58588;48.102;19.682;2023-05-27T11:02:40;99801.59;;;29.30;43.26
70930;BME280;58588;48.102;19.682;2023-05-27T11:05:42;99794.63;;;29.14;41.45
70930;BME280;58588;48.102;19.682;2023-05-27T11:08:44;99788.16;;;28.80;43.27
70930;BME280;58588;48.102;19.682;2023-05-27T11:11:47;99796.91;;;29.44;41.86
70930;BME280;58588;48.102;19.682;2023-05-27T11:14:50;99789.47;;;29.07;39.02
70930;BME280;58588;48.102;19.682;2023-05-27T11:17:53;99783.69;;;28.42;41.91
70930;BME280;58588;48.102;19.682;2023-05-27T11:20:57;99785.63;;;28.17;41.08
70930;BME280;58588;48.102;19.682;2023-05-27T11:23:59;99778.75;;;27.57;45.46
70930;BME280;58588;48.102;19.682;2023-05-27T11:27:08;99781.97;;;28.22;45.71
70930;BME280;58588;48.102;19.682;2023-05-27T11:30:11;99771.75;;;28.41;44.35
70930;BME280;58588;48.102;19.682;2023-05-27T11:33:13;99773.59;;;28.89;40.98
70930;BME280;58588;48.102;19.682;2023-05-27T11:36:17;99780.94;;;28.61;42.99
70930;BME280;58588;48.102;19.682;2023-05-27T11:39:19;99779.34;;;27.83;41.56
70930;BME280;58588;48.102;19.682;2023-05-27T11:42:23;99777.44;;;27.15;42.94
70930;BME280;58588;48.102;19.682;2023-05-27T11:45:26;99773.97;;;26.45;44.26
70930;BME280;58588;48.102;19.682;2023-05-27T11:48:30;99779.25;;;26.31;49.98
70930;BME280;58588;48.102;19.682;2023-05-27T11:51:33;99776.88;;;25.99;47.29
70930;BME280;58588;48.102;19.682;2023-05-27T11:54:37;99770.50;;;27.17;50.30
70930;BME280;58588;48.102;19.682;2023-05-27T11:57:41;99771.56;;;27.56;44.18
70930;BME280;58588;48.102;19.682;2023-05-27T12:00:43;99757.88;;;27.06;45.99
70930;BME280;58588;48.102;19.682;2023-05-27T12:03:45;99762.31;;;26.97;50.22
70930;BME280;58588;48.102;19.682;2023-05-27T12:06:47;99756.13;;;27.79;42.33
70930;BME280;58588;48.102;19.682;2023-05-27T12:09:52;99758.53;;;28.76;45.80
70930;BME280;58588;48.102;19.682;2023-05-27T12:13:03;99758.59;;;28.90;41.31
70930;BME280;58588;48.102;19.682;2023-05-27T12:16:05;99748.78;;;29.81;42.13
70930;BME280;58588;48.102;19.682;2023-05-27T12:19:07;99748.03;;;29.43;40.16
70930;BME280;58588;48.102;19.682;2023-05-27T12:22:12;99745.03;;;28.69;42.68
70930;BME280;58588;48.102;19.682;2023-05-27T12:25:14;99751.41;;;28.89;42.09
70930;BME280;58588;48.102;19.682;2023-05-27T12:28:17;99745.09;;;28.64;40.88
70930;BME280;58588;48.102;19.682;2023-05-27T12:31:19;99744.34;;;27.92;45.83
70930;BME280;58588;48.102;19.682;2023-05-27T12:34:21;99747.41;;;27.61;48.38
70930;BME280;58588;48.102;19.682;2023-05-27T12:37:24;99743.59;;;27.52;46.81
70930;BME280;58588;48.102;19.682;2023-05-27T12:40:28;99743.28;;;27.30;47.56
70930;BME280;58588;48.102;19.682;2023-05-27T12:43:31;99745.75;;;28.13;43.17
70930;BME280;58588;48.102;19.682;2023-05-27T12:46:33;99738.47;;;28.17;42.45
70930;BME280;58588;48.102;19.682;2023-05-27T12:49:36;99737.97;;;27.91;39.85
70930;BME280;58588;48.102;19.682;2023-05-27T12:52:38;99721.38;;;28.34;39.22
70930;BME280;58588;48.102;19.682;2023-05-27T12:55:46;99725.06;;;28.48;37.20
70930;BME280;58588;48.102;19.682;2023-05-27T12:58:52;99725.84;;;28.92;39.72
70930;BME280;58588;48.102;19.682;2023-05-27T13:01:54;99723.22;;;28.63;39.30
70930;BME280;58588;48.102;19.682;2023-05-27T13:04:56;99717.47;;;27.63;40.08
70930;BME280;58588;48.102;19.682;2023-05-27T13:08:04;99715.09;;;27.52;41.65
70930;BME280;58588;48.102;19.682;2023-05-27T13:11:06;99712.25;;;27.28;41.22
70930;BME280;58588;48.102;19.682;2023-05-27T13:14:12;99708.19;;;26.81;41.79
70930;BME280;58588;48.102;19.682;2023-05-27T13:17:17;99699.84;;;26.86;42.53
70930;BME280;58588;48.102;19.682;2023-05-27T13:20:25;99703.03;;;27.08;43.45
70930;BME280;58588;48.102;19.682;2023-05-27T13:23:29;99699.59;;;27.51;41.23
70930;BME280;58588;48.102;19.682;2023-05-27T13:26:34;99687.31;;;28.28;38.33
70930;BME280;58588;48.102;19.682;2023-05-27T13:29:38;99686.53;;;29.03;37.98
70930;BME280;58588;48.102;19.682;2023-05-27T13:32:41;99688.84;;;28.96;35.99
70930;BME280;58588;48.102;19.682;2023-05-27T13:35:47;99680.94;;;28.85;37.25
70930;BME280;58588;48.102;19.682;2023-05-27T13:38:49;99682.19;;;28.97;35.79
70930;BME280;58588;48.102;19.682;2023-05-27T13:41:51;99675.97;;;29.66;37.63
70930;BME280;58588;48.102;19.682;2023-05-27T13:44:55;99670.56;;;28.58;35.39
70930;BME280;58588;48.102;19.682;2023-05-27T13:47:57;99668.97;;;28.70;36.70
70930;BME280;58588;48.102;19.682;2023-05-27T13:50:59;99662.59;;;29.81;36.13
70930;BME280;58588;48.102;19.682;2023-05-27T13:54:01;99675.75;;;29.16;37.28
70930;BME280;58588;48.102;19.682;2023-05-27T13:57:04;99660.63;;;29.96;36.56
70930;BME280;58588;48.102;19.682;2023-05-27T14:00:08;99660.44;;;29.18;37.94
70930;BME280;58588;48.102;19.682;2023-05-27T14:03:10;99655.59;;;30.11;39.03
70930;BME280;58588;48.102;19.682;2023-05-27T14:06:12;99646.00;;;29.90;35.97
70930;BME280;58588;48.102;19.682;2023-05-27T14:09:15;99652.06;;;30.20;38.14
70930;BME280;58588;48.102;19.682;2023-05-27T14:12:17;99646.56;;;30.42;40.74
70930;BME280;58588;48.102;19.682;2023-05-27T14:15:20;99643.13;;;31.26;35.57
70930;BME280;58588;48.102;19.682;2023-05-27T14:18:22;99641.09;;;31.49;33.20
70930;BME280;58588;48.102;19.682;2023-05-27T14:21:24;99639.19;;;32.15;34.01
70930;BME280;58588;48.102;19.682;2023-05-27T14:24:26;99635.03;;;30.35;33.75
70930;BME280;58588;48.102;19.682;2023-05-27T14:27:28;99639.34;;;30.63;34.68
70930;BME280;58588;48.102;19.682;2023-05-27T14:30:32;99633.75;;;31.00;37.45
70930;BME280;58588;48.102;19.682;2023-05-27T14:33:37;99622.78;;;30.36;34.14
70930;BME280;58588;48.102;19.682;2023-05-27T14:36:39;99618.38;;;30.80;35.36
70930;BME280;58588;48.102;19.682;2023-05-27T14:39:41;99629.22;;;31.75;36.25
70930;BME280;58588;48.102;19.682;2023-05-27T14:42:43;99622.34;;;32.46;34.05
70930;BME280;58588;48.102;19.682;2023-05-27T14:45:51;99617.66;;;32.07;32.73
70930;BME280;58588;48.102;19.682;2023-05-27T14:48:56;99612.03;;;30.43;33.61
70930;BME280;58588;48.102;19.682;2023-05-27T14:51:58;99610.13;;;30.30;32.14
70930;BME280;58588;48.102;19.682;2023-05-27T14:55:04;99597.47;;;30.10;34.28
70930;BME280;58588;48.102;19.682;2023-05-27T14:58:06;99597.41;;;31.27;33.73
70930;BME280;58588;48.102;19.682;2023-05-27T15:01:09;99600.47;;;31.65;32.45
70930;BME280;58588;48.102;19.682;2023-05-27T15:04:12;99600.94;;;31.99;32.87
70930;BME280;58588;48.102;19.682;2023-05-27T15:07:14;99603.75;;;32.33;33.01
70930;BME280;58588;48.102;19.682;2023-05-27T15:10:18;99588.56;;;31.03;32.85
70930;BME280;58588;48.102;19.682;2023-05-27T15:13:20;99598.47;;;32.14;33.35
70930;BME280;58588;48.102;19.682;2023-05-27T15:16:24;99586.16;;;31.18;31.70
70930;BME280;58588;48.102;19.682;2023-05-27T15:19:26;99589.56;;;31.38;30.67
70930;BME280;58588;48.102;19.682;2023-05-27T15:22:28;99587.47;;;31.43;33.10
70930;BME280;58588;48.102;19.682;2023-05-27T15:25:30;99583.22;;;32.12;31.58
70930;BME280;58588;48.102;19.682;2023-05-27T15:28:32;99589.63;;;32.21;30.98
70930;BME280;58588;48.102;19.682;2023-05-27T15:31:36;99581.78;;;32.40;31.34
70930;BME280;58588;48.102;19.682;2023-05-27T15:34:38;99588.13;;;32.32;30.29
70930;BME280;58588;48.102;19.682;2023-05-27T15:37:40;99584.28;;;33.15;28.67
70930;BME280;58588;48.102;19.682;2023-05-27T15:40:42;99575.19;;;32.36;30.33
70930;BME280;58588;48.102;19.682;2023-05-27T15:43:45;99575.59;;;31.29;32.14
70930;BME280;58588;48.102;19.682;2023-05-27T15:46:49;99589.56;;;33.08;29.09
70930;BME280;58588;48.102;19.682;2023-05-27T15:49:52;99589.56;;;35.22;27.95
70930;BME280;58588;48.102;19.682;2023-05-27T15:52:54;99591.34;;;35.87;27.79
70930;BME280;58588;48.102;19.682;2023-05-27T15:55:56;99588.72;;;34.76;27.13
70930;BME280;58588;48.102;19.682;2023-05-27T15:58:59;99591.25;;;33.76;28.56
70930;BME280;58588;48.102;19.682;2023-05-27T16:02:03;99587.25;;;35.60;27.07